METAR Data

Data at: 2324 UTC 26 Feb 2020

METAR for:KCQX (Chatham Muni, MA, US)
Text:KCQX 262252Z AUTO 05008KT 1/2SM FG VV002 06/05 A2996 RMK AO2 SLP147 T00610050
Temperature: 6.1°C ( 43°F)
Dewpoint: 5.0°C ( 41°F) [RH = 93%]
Pressure (altimeter):29.96 inches Hg (1014.6 mb) [Sea level pressure: 1014.7 mb]
Winds:from the NE (50 degrees) at 9 MPH (8 knots; 4.1 m/s)
Visibility: 0.50 sm ( 0.80 km)
Ceiling:indefinite ceiling with vertical visibility of 200 feet AGL
Clouds:obscured sky
Weather:FG (fog)
QC Flag:automated observation with no human augmentation